sensor_id;sensor_type;location;lat;lon;timestamp;P1;durP1;ratioP1;P2;durP2;ratioP2
3627;SDS011;1830;49.000;12.074;2023-05-07T00:00:33;10.07;;;6.50;;
3627;SDS011;1830;49.000;12.074;2023-05-07T00:03:00;10.20;;;6.43;;
3627;SDS011;1830;49.000;12.074;2023-05-07T00:05:27;6.57;;;5.43;;
3627;SDS011;1830;49.000;12.074;2023-05-07T00:07:55;8.17;;;5.57;;
3627;SDS011;1830;49.000;12.074;2023-05-07T00:10:22;6.70;;;6.07;;
3627;SDS011;1830;49.000;12.074;2023-05-07T00:12:50;6.73;;;5.67;;
3627;SDS011;1830;49.000;12.074;2023-05-07T00:15:17;7.43;;;5.60;;
3627;SDS011;1830;49.000;12.074;2023-05-07T00:17:44;6.83;;;6.03;;
3627;SDS011;1830;49.000;12.074;2023-05-07T00:20:11;6.67;;;5.40;;
3627;SDS011;1830;49.000;12.074;2023-05-07T00:22:38;9.70;;;5.97;;
3627;SDS011;1830;49.000;12.074;2023-05-07T00:25:06;6.97;;;6.37;;
3627;SDS011;1830;49.000;12.074;2023-05-07T00:27:35;7.43;;;6.40;;
3627;SDS011;1830;49.000;12.074;2023-05-07T00:30:02;7.30;;;6.60;;
3627;SDS011;1830;49.000;12.074;2023-05-07T00:32:29;8.13;;;5.90;;
3627;SDS011;1830;49.000;12.074;2023-05-07T00:34:55;6.50;;;5.90;;
3627;SDS011;1830;49.000;12.074;2023-05-07T00:37:22;8.77;;;6.30;;
3627;SDS011;1830;49.000;12.074;2023-05-07T00:39:49;6.37;;;5.67;;
3627;SDS011;1830;49.000;12.074;2023-05-07T00:42:17;5.93;;;5.43;;
3627;SDS011;1830;49.000;12.074;2023-05-07T00:44:44;6.67;;;5.97;;
3627;SDS011;1830;49.000;12.074;2023-05-07T00:47:11;6.80;;;6.20;;
3627;SDS011;1830;49.000;12.074;2023-05-07T00:49:39;6.47;;;5.80;;
3627;SDS011;1830;49.000;12.074;2023-05-07T00:52:09;6.23;;;5.63;;
3627;SDS011;1830;49.000;12.074;2023-05-07T00:54:37;10.50;;;6.03;;
3627;SDS011;1830;49.000;12.074;2023-05-07T00:57:06;7.07;;;6.43;;
3627;SDS011;1830;49.000;12.074;2023-05-07T00:59:36;7.27;;;5.50;;
3627;SDS011;1830;49.000;12.074;2023-05-07T01:02:03;8.10;;;5.23;;
3627;SDS011;1830;49.000;12.074;2023-05-07T01:04:30;5.83;;;5.37;;
3627;SDS011;1830;49.000;12.074;2023-05-07T01:06:57;15.33;;;5.60;;
3627;SDS011;1830;49.000;12.074;2023-05-07T01:09:25;8.30;;;5.57;;
3627;SDS011;1830;49.000;12.074;2023-05-07T01:11:52;6.50;;;5.87;;
3627;SDS011;1830;49.000;12.074;2023-05-07T01:14:22;6.47;;;5.87;;
3627;SDS011;1830;49.000;12.074;2023-05-07T01:16:51;5.90;;;5.40;;
3627;SDS011;1830;49.000;12.074;2023-05-07T01:19:18;5.90;;;5.50;;
3627;SDS011;1830;49.000;12.074;2023-05-07T01:21:46;7.30;;;6.63;;
3627;SDS011;1830;49.000;12.074;2023-05-07T01:24:15;11.50;;;6.83;;
3627;SDS011;1830;49.000;12.074;2023-05-07T01:26:42;7.50;;;5.50;;
3627;SDS011;1830;49.000;12.074;2023-05-07T01:29:09;6.63;;;6.00;;
3627;SDS011;1830;49.000;12.074;2023-05-07T01:31:36;13.73;;;6.97;;
3627;SDS011;1830;49.000;12.074;2023-05-07T01:34:04;8.37;;;5.93;;
3627;SDS011;1830;49.000;12.074;2023-05-07T01:36:34;9.20;;;6.33;;
3627;SDS011;1830;49.000;12.074;2023-05-07T01:39:03;7.03;;;5.97;;
3627;SDS011;1830;49.000;12.074;2023-05-07T01:41:32;8.87;;;6.30;;
3627;SDS011;1830;49.000;12.074;2023-05-07T01:43:58;13.73;;;7.17;;
3627;SDS011;1830;49.000;12.074;2023-05-07T01:46:26;10.93;;;7.80;;
3627;SDS011;1830;49.000;12.074;2023-05-07T01:48:53;8.70;;;7.90;;
3627;SDS011;1830;49.000;12.074;2023-05-07T01:51:20;13.03;;;7.33;;
3627;SDS011;1830;49.000;12.074;2023-05-07T01:53:47;11.60;;;7.27;;
3627;SDS011;1830;49.000;12.074;2023-05-07T01:56:16;9.33;;;6.97;;
3627;SDS011;1830;49.000;12.074;2023-05-07T01:58:45;10.33;;;7.53;;
3627;SDS011;1830;49.000;12.074;2023-05-07T02:01:12;8.70;;;7.83;;
3627;SDS011;1830;49.000;12.074;2023-05-07T02:03:39;8.70;;;7.80;;
3627;SDS011;1830;49.000;12.074;2023-05-07T02:06:06;9.03;;;8.10;;
3627;SDS011;1830;49.000;12.074;2023-05-07T02:08:33;11.93;;;7.67;;
3627;SDS011;1830;49.000;12.074;2023-05-07T02:11:00;9.13;;;7.77;;
3627;SDS011;1830;49.000;12.074;2023-05-07T02:13:28;10.20;;;7.43;;
3627;SDS011;1830;49.000;12.074;2023-05-07T02:15:57;8.90;;;8.03;;
3627;SDS011;1830;49.000;12.074;2023-05-07T02:18:24;8.13;;;7.30;;
3627;SDS011;1830;49.000;12.074;2023-05-07T02:20:50;12.63;;;7.60;;
3627;SDS011;1830;49.000;12.074;2023-05-07T02:23:17;8.70;;;7.90;;
3627;SDS011;1830;49.000;12.074;2023-05-07T02:25:44;8.97;;;7.80;;
3627;SDS011;1830;49.000;12.074;2023-05-07T02:28:11;8.93;;;8.07;;
3627;SDS011;1830;49.000;12.074;2023-05-07T02:30:38;11.10;;;10.00;;
3627;SDS011;1830;49.000;12.074;2023-05-07T02:33:06;8.77;;;7.70;;
3627;SDS011;1830;49.000;12.074;2023-05-07T02:35:33;9.43;;;7.97;;
3627;SDS011;1830;49.000;12.074;2023-05-07T02:38:00;8.90;;;7.90;;
3627;SDS011;1830;49.000;12.074;2023-05-07T02:40:27;11.83;;;7.73;;
3627;SDS011;1830;49.000;12.074;2023-05-07T02:42:55;10.93;;;8.80;;
3627;SDS011;1830;49.000;12.074;2023-05-07T02:45:21;9.50;;;8.60;;
3627;SDS011;1830;49.000;12.074;2023-05-07T02:47:48;11.67;;;8.90;;
3627;SDS011;1830;49.000;12.074;2023-05-07T02:50:16;10.20;;;9.30;;
3627;SDS011;1830;49.000;12.074;2023-05-07T02:52:43;12.50;;;9.57;;
3627;SDS011;1830;49.000;12.074;2023-05-07T02:55:10;12.37;;;9.67;;
3627;SDS011;1830;49.000;12.074;2023-05-07T02:57:37;10.40;;;8.97;;
3627;SDS011;1830;49.000;12.074;2023-05-07T03:00:10;10.93;;;9.83;;
3627;SDS011;1830;49.000;12.074;2023-05-07T03:02:38;14.10;;;9.93;;
3627;SDS011;1830;49.000;12.074;2023-05-07T03:05:05;10.03;;;9.03;;
3627;SDS011;1830;49.000;12.074;2023-05-07T03:07:34;10.30;;;9.23;;
3627;SDS011;1830;49.000;12.074;2023-05-07T03:10:01;9.93;;;9.03;;
3627;SDS011;1830;49.000;12.074;2023-05-07T03:12:30;13.77;;;9.73;;
3627;SDS011;1830;49.000;12.074;2023-05-07T03:15:00;17.60;;;10.40;;
3627;SDS011;1830;49.000;12.074;2023-05-07T03:17:29;11.80;;;9.73;;
3627;SDS011;1830;49.000;12.074;2023-05-07T03:19:56;12.20;;;10.37;;
3627;SDS011;1830;49.000;12.074;2023-05-07T03:22:23;14.00;;;10.43;;
3627;SDS011;1830;49.000;12.074;2023-05-07T03:24:51;11.17;;;10.03;;
3627;SDS011;1830;49.000;12.074;2023-05-07T03:27:18;12.10;;;10.37;;
3627;SDS011;1830;49.000;12.074;2023-05-07T03:29:45;12.90;;;10.63;;
3627;SDS011;1830;49.000;12.074;2023-05-07T03:32:12;13.73;;;11.03;;
3627;SDS011;1830;49.000;12.074;2023-05-07T03:34:39;11.13;;;10.00;;
3627;SDS011;1830;49.000;12.074;2023-05-07T03:37:06;12.30;;;11.00;;
3627;SDS011;1830;49.000;12.074;2023-05-07T03:39:33;12.80;;;11.60;;
3627;SDS011;1830;49.000;12.074;2023-05-07T03:42:01;14.23;;;11.00;;
3627;SDS011;1830;49.000;12.074;2023-05-07T03:44:28;12.90;;;11.50;;
3627;SDS011;1830;49.000;12.074;2023-05-07T03:46:55;14.90;;;11.80;;
3627;SDS011;1830;49.000;12.074;2023-05-07T03:49:22;17.33;;;11.73;;
3627;SDS011;1830;49.000;12.074;2023-05-07T03:51:48;14.17;;;12.17;;
3627;SDS011;1830;49.000;12.074;2023-05-07T03:54:15;13.03;;;11.63;;
3627;SDS011;1830;49.000;12.074;2023-05-07T03:56:42;14.00;;;11.03;;
3627;SDS011;1830;49.000;12.074;2023-05-07T03:59:10;14.33;;;11.30;;
3627;SDS011;1830;49.000;12.074;2023-05-07T04:01:37;15.67;;;13.03;;
3627;SDS011;1830;49.000;12.074;2023-05-07T04:04:05;16.27;;;13.20;;
3627;SDS011;1830;49.000;12.074;2023-05-07T04:06:32;16.43;;;13.10;;
3627;SDS011;1830;49.000;12.074;2023-05-07T04:08:59;17.47;;;12.87;;
3627;SDS011;1830;49.000;12.074;2023-05-07T04:11:26;18.03;;;13.10;;
3627;SDS011;1830;49.000;12.074;2023-05-07T04:13:52;15.40;;;11.90;;
3627;SDS011;1830;49.000;12.074;2023-05-07T04:16:21;22.13;;;12.00;;
3627;SDS011;1830;49.000;12.074;2023-05-07T04:18:48;18.43;;;12.47;;
3627;SDS011;1830;49.000;12.074;2023-05-07T04:21:15;19.83;;;12.27;;
3627;SDS011;1830;49.000;12.074;2023-05-07T04:23:42;22.93;;;11.07;;
3627;SDS011;1830;49.000;12.074;2023-05-07T04:26:09;21.97;;;12.40;;
3627;SDS011;1830;49.000;12.074;2023-05-07T04:28:36;21.33;;;12.63;;
3627;SDS011;1830;49.000;12.074;2023-05-07T04:31:04;28.20;;;12.50;;
3627;SDS011;1830;49.000;12.074;2023-05-07T04:33:32;29.53;;;13.77;;
3627;SDS011;1830;49.000;12.074;2023-05-07T04:36:00;17.60;;;12.47;;
3627;SDS011;1830;49.000;12.074;2023-05-07T04:38:28;23.17;;;12.60;;
3627;SDS011;1830;49.000;12.074;2023-05-07T04:40:56;18.37;;;11.03;;
3627;SDS011;1830;49.000;12.074;2023-05-07T04:43:23;14.87;;;12.53;;
3627;SDS011;1830;49.000;12.074;2023-05-07T04:45:50;16.33;;;11.90;;
3627;SDS011;1830;49.000;12.074;2023-05-07T04:48:17;14.30;;;11.77;;
3627;SDS011;1830;49.000;12.074;2023-05-07T04:50:48;13.13;;;11.83;;
3627;SDS011;1830;49.000;12.074;2023-05-07T04:53:14;14.27;;;10.33;;
3627;SDS011;1830;49.000;12.074;2023-05-07T04:55:42;13.27;;;11.87;;
3627;SDS011;1830;49.000;12.074;2023-05-07T04:58:09;14.43;;;11.77;;
3627;SDS011;1830;49.000;12.074;2023-05-07T05:00:35;14.87;;;12.70;;
3627;SDS011;1830;49.000;12.074;2023-05-07T05:03:03;16.03;;;11.90;;
3627;SDS011;1830;49.000;12.074;2023-05-07T05:05:31;19.63;;;11.33;;
3627;SDS011;1830;49.000;12.074;2023-05-07T05:07:59;14.83;;;13.23;;
3627;SDS011;1830;49.000;12.074;2023-05-07T05:10:25;14.53;;;13.03;;
3627;SDS011;1830;49.000;12.074;2023-05-07T05:12:52;13.40;;;12.00;;
3627;SDS011;1830;49.000;12.074;2023-05-07T05:15:19;14.27;;;12.40;;
3627;SDS011;1830;49.000;12.074;2023-05-07T05:17:46;16.20;;;14.60;;
3627;SDS011;1830;49.000;12.074;2023-05-07T05:20:13;15.63;;;13.70;;
3627;SDS011;1830;49.000;12.074;2023-05-07T05:22:40;13.60;;;12.20;;
3627;SDS011;1830;49.000;12.074;2023-05-07T05:25:08;14.07;;;12.57;;
3627;SDS011;1830;49.000;12.074;2023-05-07T05:27:35;23.20;;;14.40;;
3627;SDS011;1830;49.000;12.074;2023-05-07T05:30:03;20.80;;;13.07;;
3627;SDS011;1830;49.000;12.074;2023-05-07T05:32:30;15.20;;;13.30;;
3627;SDS011;1830;49.000;12.074;2023-05-07T05:34:57;14.60;;;13.10;;
3627;SDS011;1830;49.000;12.074;2023-05-07T05:37:24;17.07;;;13.10;;
3627;SDS011;1830;49.000;12.074;2023-05-07T05:39:51;14.80;;;13.20;;
3627;SDS011;1830;49.000;12.074;2023-05-07T05:42:21;13.23;;;11.83;;
3627;SDS011;1830;49.000;12.074;2023-05-07T05:44:47;18.70;;;12.60;;
3627;SDS011;1830;49.000;12.074;2023-05-07T05:47:14;15.17;;;13.57;;
3627;SDS011;1830;49.000;12.074;2023-05-07T05:49:41;13.63;;;12.17;;
3627;SDS011;1830;49.000;12.074;2023-05-07T05:52:08;15.63;;;13.60;;
3627;SDS011;1830;49.000;12.074;2023-05-07T05:54:35;16.43;;;12.30;;
3627;SDS011;1830;49.000;12.074;2023-05-07T05:57:02;15.20;;;12.93;;
3627;SDS011;1830;49.000;12.074;2023-05-07T05:59:32;16.73;;;13.20;;
3627;SDS011;1830;49.000;12.074;2023-05-07T06:01:59;13.73;;;12.00;;
3627;SDS011;1830;49.000;12.074;2023-05-07T06:04:26;14.87;;;13.27;;
3627;SDS011;1830;49.000;12.074;2023-05-07T06:06:52;19.03;;;14.03;;
3627;SDS011;1830;49.000;12.074;2023-05-07T06:09:19;14.47;;;12.90;;
3627;SDS011;1830;49.000;12.074;2023-05-07T06:11:46;15.13;;;13.33;;
3627;SDS011;1830;49.000;12.074;2023-05-07T06:14:13;16.40;;;13.73;;
3627;SDS011;1830;49.000;12.074;2023-05-07T06:16:41;16.03;;;13.10;;
3627;SDS011;1830;49.000;12.074;2023-05-07T06:19:07;14.80;;;13.30;;
3627;SDS011;1830;49.000;12.074;2023-05-07T06:21:34;15.87;;;14.27;;
3627;SDS011;1830;49.000;12.074;2023-05-07T06:24:01;14.53;;;12.83;;
3627;SDS011;1830;49.000;12.074;2023-05-07T06:26:28;20.53;;;12.13;;
3627;SDS011;1830;49.000;12.074;2023-05-07T06:28:55;14.13;;;12.73;;
3627;SDS011;1830;49.000;12.074;2023-05-07T06:31:21;14.67;;;12.07;;
3627;SDS011;1830;49.000;12.074;2023-05-07T06:33:50;13.43;;;12.13;;
3627;SDS011;1830;49.000;12.074;2023-05-07T06:36:16;12.37;;;11.07;;
3627;SDS011;1830;49.000;12.074;2023-05-07T06:38:43;14.80;;;11.47;;
3627;SDS011;1830;49.000;12.074;2023-05-07T06:41:10;16.23;;;12.37;;
3627;SDS011;1830;49.000;12.074;2023-05-07T06:43:37;14.10;;;11.70;;
3627;SDS011;1830;49.000;12.074;2023-05-07T06:46:03;12.93;;;11.50;;
3627;SDS011;1830;49.000;12.074;2023-05-07T06:48:30;13.13;;;11.73;;
3627;SDS011;1830;49.000;12.074;2023-05-07T06:50:58;15.10;;;12.67;;
3627;SDS011;1830;49.000;12.074;2023-05-07T06:53:25;12.33;;;10.87;;
3627;SDS011;1830;49.000;12.074;2023-05-07T06:55:53;13.40;;;10.63;;
3627;SDS011;1830;49.000;12.074;2023-05-07T06:58:20;12.43;;;11.03;;
3627;SDS011;1830;49.000;12.074;2023-05-07T07:00:46;13.73;;;12.17;;
3627;SDS011;1830;49.000;12.074;2023-05-07T07:03:13;14.00;;;10.77;;
3627;SDS011;1830;49.000;12.074;2023-05-07T07:05:40;12.23;;;11.03;;
3627;SDS011;1830;49.000;12.074;2023-05-07T07:08:09;12.30;;;11.10;;
3627;SDS011;1830;49.000;12.074;2023-05-07T07:10:36;15.80;;;12.13;;
3627;SDS011;1830;49.000;12.074;2023-05-07T07:13:03;11.80;;;10.63;;
3627;SDS011;1830;49.000;12.074;2023-05-07T07:15:30;17.20;;;12.10;;
3627;SDS011;1830;49.000;12.074;2023-05-07T07:17:56;20.03;;;12.07;;
3627;SDS011;1830;49.000;12.074;2023-05-07T07:20:23;12.83;;;10.70;;
3627;SDS011;1830;49.000;12.074;2023-05-07T07:22:50;16.30;;;11.30;;
3627;SDS011;1830;49.000;12.074;2023-05-07T07:25:18;14.57;;;10.53;;
3627;SDS011;1830;49.000;12.074;2023-05-07T07:27:45;15.87;;;11.17;;
3627;SDS011;1830;49.000;12.074;2023-05-07T07:30:12;24.93;;;11.50;;
3627;SDS011;1830;49.000;12.074;2023-05-07T07:32:38;14.20;;;10.93;;
3627;SDS011;1830;49.000;12.074;2023-05-07T07:35:06;16.33;;;10.60;;
3627;SDS011;1830;49.000;12.074;2023-05-07T07:37:33;15.40;;;10.37;;
3627;SDS011;1830;49.000;12.074;2023-05-07T07:40:00;11.23;;;10.17;;
3627;SDS011;1830;49.000;12.074;2023-05-07T07:42:28;12.70;;;11.30;;
3627;SDS011;1830;49.000;12.074;2023-05-07T07:44:55;11.70;;;10.50;;
3627;SDS011;1830;49.000;12.074;2023-05-07T07:47:22;10.83;;;9.73;;
3627;SDS011;1830;49.000;12.074;2023-05-07T07:49:49;12.87;;;9.37;;
3627;SDS011;1830;49.000;12.074;2023-05-07T07:52:15;12.13;;;10.20;;
3627;SDS011;1830;49.000;12.074;2023-05-07T07:54:42;12.03;;;9.87;;
3627;SDS011;1830;49.000;12.074;2023-05-07T07:57:09;14.43;;;9.30;;
3627;SDS011;1830;49.000;12.074;2023-05-07T07:59:37;11.40;;;9.70;;
3627;SDS011;1830;49.000;12.074;2023-05-07T08:02:04;12.73;;;10.50;;
3627;SDS011;1830;49.000;12.074;2023-05-07T08:04:31;17.00;;;9.50;;
3627;SDS011;1830;49.000;12.074;2023-05-07T08:06:58;11.10;;;9.63;;
3627;SDS011;1830;49.000;12.074;2023-05-07T08:09:25;10.10;;;9.07;;
3627;SDS011;1830;49.000;12.074;2023-05-07T08:11:51;14.97;;;11.20;;
3627;SDS011;1830;49.000;12.074;2023-05-07T08:14:19;11.17;;;9.13;;
3627;SDS011;1830;49.000;12.074;2023-05-07T08:16:47;9.83;;;8.67;;
3627;SDS011;1830;49.000;12.074;2023-05-07T08:19:13;10.00;;;9.10;;
3627;SDS011;1830;49.000;12.074;2023-05-07T08:21:40;9.10;;;8.30;;
3627;SDS011;1830;49.000;12.074;2023-05-07T08:24:07;13.83;;;9.00;;
3627;SDS011;1830;49.000;12.074;2023-05-07T08:26:34;10.10;;;8.40;;
3627;SDS011;1830;49.000;12.074;2023-05-07T08:29:01;9.87;;;6.50;;
3627;SDS011;1830;49.000;12.074;2023-05-07T08:31:27;7.10;;;6.37;;
3627;SDS011;1830;49.000;12.074;2023-05-07T08:33:55;8.13;;;6.07;;
3627;SDS011;1830;49.000;12.074;2023-05-07T08:36:23;7.70;;;6.10;;
3627;SDS011;1830;49.000;12.074;2023-05-07T08:38:50;7.20;;;5.83;;
3627;SDS011;1830;49.000;12.074;2023-05-07T08:41:17;6.73;;;6.13;;
3627;SDS011;1830;49.000;12.074;2023-05-07T08:43:46;7.27;;;6.57;;
3627;SDS011;1830;49.000;12.074;2023-05-07T08:46:16;9.73;;;6.27;;
3627;SDS011;1830;49.000;12.074;2023-05-07T08:48:44;8.57;;;6.83;;
3627;SDS011;1830;49.000;12.074;2023-05-07T08:51:15;8.07;;;7.20;;
3627;SDS011;1830;49.000;12.074;2023-05-07T08:53:43;9.50;;;7.33;;
3627;SDS011;1830;49.000;12.074;2023-05-07T08:56:10;8.73;;;6.43;;
3627;SDS011;1830;49.000;12.074;2023-05-07T08:58:38;7.33;;;6.60;;
3627;SDS011;1830;49.000;12.074;2023-05-07T09:01:06;8.00;;;7.20;;
3627;SDS011;1830;49.000;12.074;2023-05-07T09:03:34;8.70;;;6.90;;
3627;SDS011;1830;49.000;12.074;2023-05-07T09:06:02;7.73;;;7.03;;
3627;SDS011;1830;49.000;12.074;2023-05-07T09:08:32;7.13;;;6.53;;
3627;SDS011;1830;49.000;12.074;2023-05-07T09:10:59;9.03;;;7.00;;
3627;SDS011;1830;49.000;12.074;2023-05-07T09:13:26;8.17;;;7.37;;
3627;SDS011;1830;49.000;12.074;2023-05-07T09:15:53;8.10;;;7.30;;
3627;SDS011;1830;49.000;12.074;2023-05-07T09:18:20;9.13;;;7.43;;
3627;SDS011;1830;49.000;12.074;2023-05-07T09:20:47;6.40;;;5.80;;
3627;SDS011;1830;49.000;12.074;2023-05-07T09:23:14;6.70;;;6.00;;
3627;SDS011;1830;49.000;12.074;2023-05-07T09:25:42;6.13;;;5.23;;
3627;SDS011;1830;49.000;12.074;2023-05-07T09:28:09;6.87;;;6.27;;
3627;SDS011;1830;49.000;12.074;2023-05-07T09:30:36;6.83;;;6.17;;
3627;SDS011;1830;49.000;12.074;2023-05-07T09:33:03;11.20;;;5.63;;
3627;SDS011;1830;49.000;12.074;2023-05-07T09:35:30;7.00;;;5.80;;
3627;SDS011;1830;49.000;12.074;2023-05-07T09:37:57;10.43;;;5.30;;
3627;SDS011;1830;49.000;12.074;2023-05-07T09:40:26;7.03;;;6.40;;
3627;SDS011;1830;49.000;12.074;2023-05-07T09:42:55;7.70;;;6.27;;
3627;SDS011;1830;49.000;12.074;2023-05-07T09:45:22;6.83;;;6.23;;
3627;SDS011;1830;49.000;12.074;2023-05-07T09:47:53;5.90;;;5.40;;
3627;SDS011;1830;49.000;12.074;2023-05-07T09:50:22;6.80;;;6.10;;
3627;SDS011;1830;49.000;12.074;2023-05-07T09:52:52;7.83;;;6.30;;
3627;SDS011;1830;49.000;12.074;2023-05-07T09:55:20;9.77;;;6.37;;
3627;SDS011;1830;49.000;12.074;2023-05-07T09:57:48;6.27;;;5.77;;
3627;SDS011;1830;49.000;12.074;2023-05-07T10:00:19;7.20;;;6.50;;
3627;SDS011;1830;49.000;12.074;2023-05-07T10:02:47;9.37;;;6.43;;
3627;SDS011;1830;49.000;12.074;2023-05-07T10:05:17;6.70;;;5.97;;
3627;SDS011;1830;49.000;12.074;2023-05-07T10:07:45;7.50;;;6.00;;
3627;SDS011;1830;49.000;12.074;2023-05-07T10:10:13;7.87;;;7.07;;
3627;SDS011;1830;49.000;12.074;2023-05-07T10:12:41;9.73;;;6.30;;
3627;SDS011;1830;49.000;12.074;2023-05-07T10:15:08;8.50;;;7.43;;
3627;SDS011;1830;49.000;12.074;2023-05-07T10:17:38;8.70;;;7.37;;
3627;SDS011;1830;49.000;12.074;2023-05-07T10:20:05;8.50;;;7.60;;
3627;SDS011;1830;49.000;12.074;2023-05-07T10:22:37;9.40;;;8.40;;
3627;SDS011;1830;49.000;12.074;2023-05-07T10:25:09;7.70;;;6.60;;
3627;SDS011;1830;49.000;12.074;2023-05-07T10:27:41;10.27;;;8.13;;
3627;SDS011;1830;49.000;12.074;2023-05-07T10:30:12;9.43;;;8.53;;
3627;SDS011;1830;49.000;12.074;2023-05-07T10:32:49;13.33;;;8.90;;
3627;SDS011;1830;49.000;12.074;2023-05-07T10:35:20;11.10;;;7.90;;
3627;SDS011;1830;49.000;12.074;2023-05-07T10:37:50;16.33;;;8.97;;
3627;SDS011;1830;49.000;12.074;2023-05-07T10:40:17;15.73;;;10.47;;
3627;SDS011;1830;49.000;12.074;2023-05-07T10:42:55;9.37;;;8.57;;
3627;SDS011;1830;49.000;12.074;2023-05-07T10:45:23;9.77;;;8.23;;
3627;SDS011;1830;49.000;12.074;2023-05-07T10:48:08;13.37;;;8.80;;
3627;SDS011;1830;49.000;12.074;2023-05-07T10:50:36;9.57;;;8.40;;
3627;SDS011;1830;49.000;12.074;2023-05-07T10:53:23;10.03;;;9.03;;
3627;SDS011;1830;49.000;12.074;2023-05-07T10:58:52;10.40;;;8.57;;
3627;SDS011;1830;49.000;12.074;2023-05-07T11:04:18;14.03;;;9.37;;
3627;SDS011;1830;49.000;12.074;2023-05-07T11:09:54;9.17;;;8.27;;
3627;SDS011;1830;49.000;12.074;2023-05-07T11:15:14;9.80;;;6.73;;
3627;SDS011;1830;49.000;12.074;2023-05-07T11:17:51;8.03;;;6.70;;
3627;SDS011;1830;49.000;12.074;2023-05-07T11:20:20;6.30;;;5.60;;
3627;SDS011;1830;49.000;12.074;2023-05-07T11:23:08;7.63;;;6.23;;
3627;SDS011;1830;49.000;12.074;2023-05-07T11:25:58;6.43;;;5.70;;
3627;SDS011;1830;49.000;12.074;2023-05-07T11:28:26;5.57;;;5.03;;
3627;SDS011;1830;49.000;12.074;2023-05-07T11:30:54;6.87;;;6.10;;
3627;SDS011;1830;49.000;12.074;2023-05-07T11:33:22;8.80;;;6.57;;
3627;SDS011;1830;49.000;12.074;2023-05-07T11:35:51;6.70;;;6.07;;
3627;SDS011;1830;49.000;12.074;2023-05-07T11:38:19;8.17;;;6.53;;
3627;SDS011;1830;49.000;12.074;2023-05-07T11:40:49;6.57;;;4.60;;
3627;SDS011;1830;49.000;12.074;2023-05-07T11:43:16;5.03;;;4.50;;
3627;SDS011;1830;49.000;12.074;2023-05-07T11:45:43;4.77;;;4.47;;
3627;SDS011;1830;49.000;12.074;2023-05-07T11:48:11;6.20;;;5.47;;
3627;SDS011;1830;49.000;12.074;2023-05-07T11:50:48;4.60;;;4.20;;
3627;SDS011;1830;49.000;12.074;2023-05-07T11:53:18;6.50;;;4.10;;
3627;SDS011;1830;49.000;12.074;2023-05-07T11:55:45;5.43;;;4.30;;
3627;SDS011;1830;49.000;12.074;2023-05-07T11:58:12;5.03;;;3.40;;
3627;SDS011;1830;49.000;12.074;2023-05-07T12:00:47;6.73;;;6.13;;
3627;SDS011;1830;49.000;12.074;2023-05-07T12:03:15;8.07;;;7.27;;
3627;SDS011;1830;49.000;12.074;2023-05-07T12:05:42;7.67;;;6.97;;
3627;SDS011;1830;49.000;12.074;2023-05-07T12:08:13;9.73;;;7.53;;
3627;SDS011;1830;49.000;12.074;2023-05-07T12:10:40;11.30;;;6.53;;
3627;SDS011;1830;49.000;12.074;2023-05-07T12:13:13;8.27;;;7.43;;
3627;SDS011;1830;49.000;12.074;2023-05-07T12:15:40;8.17;;;7.07;;
3627;SDS011;1830;49.000;12.074;2023-05-07T12:18:07;8.13;;;7.40;;
3627;SDS011;1830;49.000;12.074;2023-05-07T12:20:35;13.07;;;7.50;;
3627;SDS011;1830;49.000;12.074;2023-05-07T12:23:02;8.50;;;6.87;;
3627;SDS011;1830;49.000;12.074;2023-05-07T12:25:31;10.70;;;7.13;;
3627;SDS011;1830;49.000;12.074;2023-05-07T12:27:59;12.50;;;6.47;;
3627;SDS011;1830;49.000;12.074;2023-05-07T12:30:26;8.30;;;6.60;;
3627;SDS011;1830;49.000;12.074;2023-05-07T12:32:53;6.87;;;6.17;;
3627;SDS011;1830;49.000;12.074;2023-05-07T12:35:27;8.30;;;6.80;;
3627;SDS011;1830;49.000;12.074;2023-05-07T12:37:55;9.13;;;5.90;;
3627;SDS011;1830;49.000;12.074;2023-05-07T12:40:22;6.27;;;5.67;;
3627;SDS011;1830;49.000;12.074;2023-05-07T12:42:52;6.73;;;5.50;;
3627;SDS011;1830;49.000;12.074;2023-05-07T12:45:20;8.03;;;6.20;;
3627;SDS011;1830;49.000;12.074;2023-05-07T12:47:47;5.93;;;5.30;;
3627;SDS011;1830;49.000;12.074;2023-05-07T12:50:14;9.60;;;6.35;;
3627;SDS011;1830;49.000;12.074;2023-05-07T12:52:42;5.80;;;5.33;;
3627;SDS011;1830;49.000;12.074;2023-05-07T12:55:11;4.90;;;4.50;;
3627;SDS011;1830;49.000;12.074;2023-05-07T12:57:40;6.30;;;5.23;;
3627;SDS011;1830;49.000;12.074;2023-05-07T13:00:10;6.18;;;5.68;;
3627;SDS011;1830;49.000;12.074;2023-05-07T13:02:38;7.17;;;5.40;;
3627;SDS011;1830;49.000;12.074;2023-05-07T13:05:05;7.65;;;5.05;;
3627;SDS011;1830;49.000;12.074;2023-05-07T13:07:33;5.03;;;4.63;;
3627;SDS011;1830;49.000;12.074;2023-05-07T13:10:00;5.97;;;5.30;;
3627;SDS011;1830;49.000;12.074;2023-05-07T13:12:27;5.30;;;4.80;;
3627;SDS011;1830;49.000;12.074;2023-05-07T13:14:54;11.23;;;5.93;;
3627;SDS011;1830;49.000;12.074;2023-05-07T13:17:23;7.47;;;5.18;;
3627;SDS011;1830;49.000;12.074;2023-05-07T13:19:49;6.97;;;5.00;;
3627;SDS011;1830;49.000;12.074;2023-05-07T13:22:16;8.05;;;5.45;;
3627;SDS011;1830;49.000;12.074;2023-05-07T13:24:43;7.88;;;5.75;;
3627;SDS011;1830;49.000;12.074;2023-05-07T13:27:10;4.90;;;4.50;;
3627;SDS011;1830;49.000;12.074;2023-05-07T13:29:36;6.32;;;4.88;;
3627;SDS011;1830;49.000;12.074;2023-05-07T13:32:03;5.70;;;5.15;;
3627;SDS011;1830;49.000;12.074;2023-05-07T13:34:31;4.85;;;4.45;;
3627;SDS011;1830;49.000;12.074;2023-05-07T13:36:58;5.30;;;4.90;;
3627;SDS011;1830;49.000;12.074;2023-05-07T13:39:25;6.13;;;4.95;;
3627;SDS011;1830;49.000;12.074;2023-05-07T13:41:52;4.63;;;4.20;;
3627;SDS011;1830;49.000;12.074;2023-05-07T13:44:19;4.68;;;4.38;;
3627;SDS011;1830;49.000;12.074;2023-05-07T13:46:46;5.15;;;4.43;;
3627;SDS011;1830;49.000;12.074;2023-05-07T13:49:13;4.97;;;4.57;;
3627;SDS011;1830;49.000;12.074;2023-05-07T13:51:41;4.90;;;4.50;;
3627;SDS011;1830;49.000;12.074;2023-05-07T13:54:07;5.00;;;4.60;;
3627;SDS011;1830;49.000;12.074;2023-05-07T13:56:34;4.43;;;4.03;;
3627;SDS011;1830;49.000;12.074;2023-05-07T13:59:01;4.05;;;3.63;;
3627;SDS011;1830;49.000;12.074;2023-05-07T14:01:28;4.38;;;3.97;;
3627;SDS011;1830;49.000;12.074;2023-05-07T14:03:55;4.82;;;4.28;;
3627;SDS011;1830;49.000;12.074;2023-05-07T14:06:22;4.78;;;4.32;;
3627;SDS011;1830;49.000;12.074;2023-05-07T14:08:50;4.20;;;3.90;;
3627;SDS011;1830;49.000;12.074;2023-05-07T14:11:17;4.57;;;4.28;;
3627;SDS011;1830;49.000;12.074;2023-05-07T14:13:44;4.50;;;4.10;;
3627;SDS011;1830;49.000;12.074;2023-05-07T14:16:11;4.32;;;4.03;;
3627;SDS011;1830;49.000;12.074;2023-05-07T14:18:37;5.00;;;3.92;;
3627;SDS011;1830;49.000;12.074;2023-05-07T14:21:04;5.38;;;3.63;;
3627;SDS011;1830;49.000;12.074;2023-05-07T14:23:32;6.18;;;3.92;;
3627;SDS011;1830;49.000;12.074;2023-05-07T14:26:00;5.03;;;4.00;;
3627;SDS011;1830;49.000;12.074;2023-05-07T14:28:27;4.30;;;3.90;;
3627;SDS011;1830;49.000;12.074;2023-05-07T14:30:54;8.48;;;3.90;;
3627;SDS011;1830;49.000;12.074;2023-05-07T14:33:20;4.47;;;4.07;;
3627;SDS011;1830;49.000;12.074;2023-05-07T14:35:47;6.80;;;4.45;;
3627;SDS011;1830;49.000;12.074;2023-05-07T14:38:15;4.78;;;4.38;;
3627;SDS011;1830;49.000;12.074;2023-05-07T14:40:41;4.60;;;4.20;;
3627;SDS011;1830;49.000;12.074;2023-05-07T14:43:10;5.10;;;4.60;;
3627;SDS011;1830;49.000;12.074;2023-05-07T14:45:36;4.68;;;4.03;;
3627;SDS011;1830;49.000;12.074;2023-05-07T14:48:03;5.60;;;5.10;;
3627;SDS011;1830;49.000;12.074;2023-05-07T14:50:30;7.47;;;4.25;;
3627;SDS011;1830;49.000;12.074;2023-05-07T14:52:57;7.50;;;5.10;;
3627;SDS011;1830;49.000;12.074;2023-05-07T14:55:24;5.35;;;4.78;;
3627;SDS011;1830;49.000;12.074;2023-05-07T14:57:51;16.13;;;5.78;;
3627;SDS011;1830;49.000;12.074;2023-05-07T15:00:19;5.97;;;4.63;;
3627;SDS011;1830;49.000;12.074;2023-05-07T15:02:46;5.20;;;4.70;;
3627;SDS011;1830;49.000;12.074;2023-05-07T15:05:13;5.15;;;4.65;;